createdAt,value
2018-11-05T00:01:50.193Z,38.65
2018-11-05T00:04:19.232Z,39.00
2018-11-05T00:06:48.058Z,41.92
2018-11-05T00:09:17.087Z,40.48
2018-11-05T00:11:45.926Z,41.85
2018-11-05T00:14:14.973Z,40.65
2018-11-05T00:16:43.309Z,43.50
2018-11-05T00:19:12.124Z,41.28
2018-11-05T00:21:40.830Z,42.45
2018-11-05T00:24:10.231Z,42.15
2018-11-05T00:26:39.331Z,42.80
2018-11-05T00:29:08.535Z,41.48
2018-11-05T00:31:37.559Z,41.83
2018-11-05T00:34:06.605Z,41.50
2018-11-05T00:36:35.269Z,43.48
2018-11-05T00:39:04.770Z,44.58
2018-11-05T00:41:33.496Z,44.48
2018-11-05T00:44:02.162Z,44.27
2018-11-05T00:46:31.302Z,43.83
2018-11-05T00:49:00.377Z,44.98
2018-11-05T00:51:29.418Z,46.83
2018-11-05T00:53:58.284Z,46.28
2018-11-05T00:56:26.971Z,44.80
2018-11-05T00:58:55.664Z,46.05
2018-11-05T01:01:24.903Z,48.52
2018-11-05T01:03:54.082Z,48.17
2018-11-05T01:06:22.472Z,49.08
2018-11-05T01:08:52.049Z,46.73
2018-11-05T01:11:21.127Z,48.00
2018-11-05T01:13:50.154Z,48.28
2018-11-05T01:16:19.214Z,49.90
2018-11-05T01:18:47.902Z,47.48
2018-11-05T01:21:16.986Z,49.35
2018-11-05T01:23:46.021Z,48.15
2018-11-05T01:26:15.038Z,49.90
2018-11-05T01:28:45.101Z,46.83
2018-11-05T01:31:14.265Z,48.55
2018-11-05T01:33:42.982Z,51.35
2018-11-05T01:36:11.993Z,50.70
2018-11-05T01:38:40.661Z,50.85
2018-11-05T01:41:09.679Z,47.90
2018-11-05T01:43:38.411Z,51.13
2018-11-05T01:46:06.797Z,49.20
2018-11-05T01:48:35.494Z,51.60
2018-11-05T01:51:04.231Z,48.20
2018-11-05T01:53:32.903Z,49.18
2018-11-05T01:56:01.949Z,49.27
2018-11-05T01:58:31.412Z,52.40
2018-11-05T02:00:59.809Z,53.08
2018-11-05T02:03:28.825Z,51.33
2018-11-05T02:05:57.883Z,50.92
2018-11-05T02:08:26.575Z,49.08
2018-11-05T02:10:55.825Z,52.08
2018-11-05T02:13:24.606Z,49.67
2018-11-05T02:15:53.778Z,50.52
2018-11-05T02:18:23.081Z,51.00
2018-11-05T02:20:51.773Z,52.40
2018-11-05T02:23:20.520Z,54.50
2018-11-05T02:25:49.913Z,50.85
2018-11-05T02:28:18.905Z,54.20
2018-11-05T02:30:47.602Z,51.92
2018-11-05T02:33:16.297Z,54.95
2018-11-05T02:35:45.356Z,53.10
2018-11-05T02:38:14.377Z,54.88
2018-11-05T02:40:43.140Z,55.30
2018-11-05T02:43:12.259Z,54.08
2018-11-05T02:45:41.366Z,54.13
2018-11-05T02:48:10.112Z,53.28
2018-11-05T02:50:39.016Z,52.88
2018-11-05T02:53:08.049Z,53.78
2018-11-05T02:55:37.048Z,55.45
2018-11-05T02:58:05.962Z,54.88
2018-11-05T03:00:35.103Z,53.55
2018-11-05T03:03:03.981Z,53.35
2018-11-05T03:05:32.829Z,52.35
2018-11-05T03:08:02.068Z,54.80
2018-11-05T03:10:31.079Z,51.80
2018-11-05T03:12:59.777Z,53.90
2018-11-05T03:15:28.495Z,51.83
2018-11-05T03:17:57.821Z,55.45
2018-11-05T03:20:27.045Z,52.43
2018-11-05T03:22:55.729Z,54.10
2018-11-05T03:25:24.871Z,52.85
2018-11-05T03:27:53.557Z,52.17
2018-11-05T03:30:22.247Z,53.28
2018-11-05T03:32:51.049Z,54.10
2018-11-05T03:35:19.957Z,53.63
2018-11-05T03:37:48.677Z,52.80
2018-11-05T03:40:17.382Z,55.88
2018-11-05T03:42:46.097Z,51.88
2018-11-05T03:45:15.664Z,50.88
2018-11-05T03:47:44.600Z,51.20
2018-11-05T03:50:14.285Z,49.80
2018-11-05T03:52:43.980Z,51.63
2018-11-05T03:55:13.182Z,52.25
2018-11-05T03:57:41.874Z,52.55
2018-11-05T04:00:12.013Z,51.58
2018-11-05T04:02:40.757Z,52.03
2018-11-05T04:05:09.605Z,54.67
2018-11-05T04:07:38.933Z,53.63
2018-11-05T04:10:08.365Z,51.40
2018-11-05T04:12:37.097Z,50.50
2018-11-05T04:15:05.582Z,53.17
2018-11-05T04:17:34.277Z,54.05
2018-11-05T04:20:03.119Z,51.30
2018-11-05T04:22:32.142Z,52.08
2018-11-05T04:25:00.817Z,49.88
2018-11-05T04:27:29.875Z,50.80
2018-11-05T04:30:04.426Z,52.90
2018-11-05T04:32:33.787Z,51.58
2018-11-05T04:35:02.859Z,54.40
2018-11-05T04:37:31.992Z,49.60
2018-11-05T04:40:01.359Z,51.42
2018-11-05T04:42:30.072Z,52.80
2018-11-05T04:44:58.917Z,50.48
2018-11-05T04:47:27.869Z,50.55
2018-11-05T04:49:57.090Z,51.68
2018-11-05T04:52:26.230Z,49.15
2018-11-05T04:54:55.279Z,51.40
2018-11-05T04:57:24.333Z,54.10
2018-11-05T04:59:53.842Z,48.85
2018-11-05T05:02:22.239Z,49.03
2018-11-05T05:04:51.454Z,50.75
2018-11-05T05:07:20.681Z,51.35
2018-11-05T05:09:49.938Z,47.80
2018-11-05T05:12:18.952Z,73.07
2018-11-05T05:14:48.001Z,51.75
2018-11-05T05:17:16.732Z,52.13
2018-11-05T05:19:45.784Z,50.80
2018-11-05T05:22:14.896Z,48.55
2018-11-05T05:24:44.081Z,50.83
2018-11-05T05:27:13.125Z,50.15
2018-11-05T05:29:42.166Z,49.13
2018-11-05T05:32:11.226Z,51.08
2018-11-05T05:34:40.323Z,49.63
2018-11-05T05:37:09.367Z,49.40
2018-11-05T05:39:38.446Z,47.45
2018-11-05T05:42:07.106Z,49.13
2018-11-05T05:44:36.171Z,48.95
2018-11-05T05:47:04.814Z,50.73
2018-11-05T05:49:33.272Z,52.35
2018-11-05T05:52:01.994Z,49.65
2018-11-05T05:54:31.282Z,50.43
2018-11-05T05:56:59.685Z,47.90
2018-11-05T05:59:28.740Z,48.83
2018-11-05T06:01:57.437Z,49.70
2018-11-05T06:04:26.165Z,49.35
2018-11-05T06:06:55.188Z,48.78
2018-11-05T06:09:23.898Z,50.03
2018-11-05T06:11:52.991Z,47.88
2018-11-05T06:14:21.702Z,49.27
2018-11-05T06:16:50.757Z,46.88
2018-11-05T06:19:19.784Z,47.88
2018-11-05T06:21:48.838Z,49.48
2018-11-05T06:24:18.039Z,48.58
2018-11-05T06:26:46.765Z,49.23
2018-11-05T06:29:15.227Z,48.68
2018-11-05T06:31:44.295Z,50.35
2018-11-05T06:34:13.361Z,48.45
2018-11-05T06:36:42.441Z,48.35
2018-11-05T06:39:12.444Z,48.13
2018-11-05T06:41:42.394Z,47.35
2018-11-05T06:44:11.640Z,44.45
2018-11-05T06:46:40.762Z,47.27
2018-11-05T06:49:09.730Z,48.02
2018-11-05T06:51:38.754Z,48.23
2018-11-05T06:54:07.839Z,46.70
2018-11-05T06:56:37.020Z,47.15
2018-11-05T06:59:06.418Z,44.83
2018-11-05T07:01:34.781Z,47.20
2018-11-05T07:04:03.483Z,46.53
2018-11-05T07:06:32.566Z,46.88
2018-11-05T07:09:01.614Z,47.80
2018-11-05T07:11:30.796Z,45.60
2018-11-05T07:13:59.210Z,45.03
2018-11-05T07:16:28.337Z,43.60
2018-11-05T07:18:57.668Z,44.30
2018-11-05T07:21:26.305Z,43.85
2018-11-05T07:23:54.994Z,46.25
2018-11-05T07:26:23.785Z,44.88
2018-11-05T07:28:53.023Z,45.80
2018-11-05T07:31:22.059Z,46.55
2018-11-05T07:33:50.867Z,46.23
2018-11-05T07:36:19.741Z,45.35
2018-11-05T07:38:48.813Z,46.23
2018-11-05T07:41:17.880Z,44.27
2018-11-05T07:43:46.643Z,45.85
2018-11-05T07:46:15.429Z,45.65
2018-11-05T07:48:44.145Z,44.88
2018-11-05T07:51:12.568Z,44.35
2018-11-05T07:53:41.269Z,41.90
2018-11-05T07:56:10.338Z,43.98
2018-11-05T07:58:39.501Z,44.73
2018-11-05T08:01:08.219Z,42.17
2018-11-05T08:03:36.962Z,43.28
2018-11-05T08:06:05.435Z,43.65
2018-11-05T08:08:34.287Z,41.92
2018-11-05T08:11:03.087Z,42.95
2018-11-05T08:13:32.174Z,43.65
2018-11-05T08:16:01.458Z,43.73
2018-11-05T08:18:30.509Z,42.40
2018-11-05T08:20:59.256Z,44.30
2018-11-05T08:23:28.018Z,42.05
2018-11-05T08:25:57.132Z,42.40
2018-11-05T08:28:26.394Z,42.83
2018-11-05T08:30:55.421Z,41.95
2018-11-05T08:33:24.460Z,42.53
2018-11-05T08:35:53.553Z,43.15
2018-11-05T08:38:22.300Z,41.53
2018-11-05T08:40:51.306Z,41.75
2018-11-05T08:43:19.786Z,41.05
2018-11-05T08:45:48.914Z,41.13
2018-11-05T08:48:17.966Z,40.12
2018-11-05T08:50:46.780Z,44.35
2018-11-05T08:53:15.974Z,39.90
2018-11-05T08:55:45.058Z,42.67
2018-11-05T08:58:14.146Z,41.30
2018-11-05T09:00:56.032Z,44.18
2018-11-05T09:03:25.217Z,42.43
2018-11-05T09:05:54.303Z,39.10
2018-11-05T09:08:23.064Z,41.35
2018-11-05T09:10:52.414Z,42.95
2018-11-05T09:13:20.921Z,41.85
2018-11-05T09:15:50.000Z,40.65
2018-11-05T09:18:19.108Z,40.45
2018-11-05T09:20:47.841Z,40.23
2018-11-05T09:23:17.102Z,42.20
2018-11-05T09:25:46.181Z,39.30
2018-11-05T09:28:14.972Z,40.28
2018-11-05T09:30:44.042Z,39.55
2018-11-05T09:33:13.103Z,41.92
2018-11-05T09:35:42.259Z,40.50
2018-11-05T09:38:11.081Z,39.03
2018-11-05T09:40:39.825Z,41.63
2018-11-05T09:43:08.218Z,39.88
2018-11-05T09:45:37.285Z,39.55
2018-11-05T09:48:05.998Z,39.45
2018-11-05T09:50:34.806Z,42.15
2018-11-05T09:53:03.985Z,38.35
2018-11-05T09:55:33.078Z,41.80
2018-11-05T09:58:01.666Z,38.50
2018-11-05T10:00:30.426Z,38.60
2018-11-05T10:03:01.854Z,38.40
2018-11-05T10:05:31.154Z,39.40
2018-11-05T10:07:59.708Z,37.80
2018-11-05T10:10:28.904Z,37.65
2018-11-05T10:12:57.864Z,37.70
2018-11-05T10:15:26.373Z,38.47
2018-11-05T10:17:54.934Z,36.68
2018-11-05T10:20:24.762Z,38.20
2018-11-05T10:22:53.478Z,36.42
2018-11-05T10:25:21.929Z,36.67
2018-11-05T10:27:51.510Z,35.33
2018-11-05T10:30:28.370Z,36.80
2018-11-05T10:32:57.078Z,35.60
2018-11-05T10:35:30.809Z,35.90
2018-11-05T10:37:58.911Z,36.27
2018-11-05T10:40:27.423Z,35.30
2018-11-05T10:42:55.973Z,33.50
2018-11-05T10:45:24.711Z,35.73
2018-11-05T10:47:53.453Z,35.53
2018-11-05T10:50:22.251Z,35.50
2018-11-05T10:52:51.793Z,34.90
2018-11-05T10:55:20.301Z,37.43
2018-11-05T10:57:48.963Z,35.00
2018-11-05T11:00:24.855Z,35.10
2018-11-05T11:02:59.011Z,35.57
2018-11-05T11:05:27.949Z,35.10
2018-11-05T11:07:57.368Z,34.27
2018-11-05T11:10:26.793Z,33.40
2018-11-05T11:12:55.913Z,32.70
2018-11-05T11:15:24.551Z,34.13
2018-11-05T11:17:53.841Z,32.63
2018-11-05T11:20:22.380Z,34.20
2018-11-05T11:22:50.813Z,32.03
2018-11-05T11:25:19.737Z,34.47
2018-11-05T11:27:48.564Z,33.63
2018-11-05T11:30:18.169Z,31.80
2018-11-05T11:32:47.573Z,33.23
2018-11-05T11:35:16.465Z,32.70
2018-11-05T11:37:45.212Z,33.00
2018-11-05T11:40:16.991Z,32.37
2018-11-05T11:42:47.881Z,31.70
2018-11-05T11:45:17.691Z,32.33
2018-11-05T11:47:45.807Z,31.27
2018-11-05T11:50:15.852Z,31.67
2018-11-05T11:52:44.378Z,33.83
2018-11-05T11:55:14.799Z,33.30
2018-11-05T11:57:44.112Z,31.17
2018-11-05T12:00:15.757Z,30.93
2018-11-05T12:02:44.793Z,32.83
2018-11-05T12:05:13.471Z,30.97
2018-11-05T12:07:42.133Z,31.40
2018-11-05T12:10:13.511Z,31.33
2018-11-05T12:12:42.461Z,32.57
2018-11-05T12:15:11.553Z,32.10
2018-11-05T12:17:40.874Z,30.97
2018-11-05T12:20:12.065Z,33.30
2018-11-05T12:22:40.458Z,33.90
2018-11-05T12:25:08.943Z,30.83
2018-11-05T12:27:37.889Z,32.00
2018-11-05T12:30:09.051Z,32.03
2018-11-05T12:32:37.228Z,31.10
2018-11-05T12:35:06.612Z,31.30
2018-11-05T12:37:35.261Z,30.93
2018-11-05T12:40:03.357Z,30.60
2018-11-05T12:42:31.796Z,30.00
2018-11-05T12:45:00.580Z,30.67
2018-11-05T12:47:29.182Z,32.33
2018-11-05T12:49:57.699Z,30.67
2018-11-05T12:52:26.201Z,31.30
2018-11-05T12:54:54.841Z,32.43
2018-11-05T12:57:23.601Z,32.67
2018-11-05T12:59:52.709Z,31.13
2018-11-05T13:02:24.353Z,32.37
2018-11-05T13:04:53.228Z,31.77
2018-11-05T13:07:21.817Z,31.43
2018-11-05T13:09:50.942Z,31.20
2018-11-05T13:12:19.818Z,32.07
2018-11-05T13:14:48.357Z,30.90
2018-11-05T13:17:17.142Z,33.27
2018-11-05T13:19:45.565Z,33.30
2018-11-05T13:22:14.399Z,31.40
2018-11-05T13:24:42.949Z,32.87
2018-11-05T13:27:11.698Z,32.80
2018-11-05T13:29:40.246Z,32.67
2018-11-05T13:32:08.524Z,33.57
2018-11-05T13:34:37.269Z,32.77
2018-11-05T13:37:05.988Z,32.10
2018-11-05T13:39:35.038Z,32.03
2018-11-05T13:42:03.449Z,31.63
2018-11-05T13:44:32.306Z,32.67
2018-11-05T13:47:01.810Z,33.27
2018-11-05T13:49:29.615Z,34.20
2018-11-05T13:51:58.840Z,30.83
2018-11-05T13:54:27.206Z,31.10
2018-11-05T13:56:55.806Z,34.00
2018-11-05T13:59:24.300Z,34.03
2018-11-05T14:01:53.114Z,32.63
2018-11-05T14:04:21.917Z,32.07
2018-11-05T14:06:50.800Z,34.13
2018-11-05T14:09:19.554Z,33.30
2018-11-05T14:11:48.093Z,32.37
2018-11-05T14:14:16.544Z,31.30
2018-11-05T14:16:44.954Z,32.23
2018-11-05T14:19:13.417Z,32.20
2018-11-05T14:21:42.209Z,32.60
2018-11-05T14:24:11.049Z,31.83
2018-11-05T14:26:39.783Z,33.67
2018-11-05T14:29:08.903Z,35.30
2018-11-05T14:31:37.179Z,35.20
2018-11-05T14:34:05.512Z,34.10
2018-11-05T14:36:34.352Z,35.77
2018-11-05T14:39:03.357Z,34.93
2018-11-05T14:41:32.114Z,34.60
2018-11-05T14:44:00.627Z,32.60
2018-11-05T14:46:29.399Z,34.00
2018-11-05T14:48:58.145Z,34.67
2018-11-05T14:51:27.129Z,35.83
2018-11-05T14:53:55.862Z,34.90
2018-11-05T14:56:24.323Z,35.87
2018-11-05T14:58:53.070Z,36.47
2018-11-05T15:01:21.479Z,36.07
2018-11-05T15:03:49.821Z,37.90
2018-11-05T15:06:18.703Z,37.00
2018-11-05T15:08:47.205Z,37.00
2018-11-05T15:11:15.965Z,47.47
2018-11-05T15:13:45.406Z,36.70
2018-11-05T15:16:14.248Z,36.03
2018-11-05T15:18:43.030Z,35.97
2018-11-05T15:21:11.879Z,34.63
2018-11-05T15:23:40.549Z,35.50
2018-11-05T15:26:09.391Z,36.37
2018-11-05T15:28:37.945Z,35.17
2018-11-05T15:31:07.223Z,31.48
2018-11-05T15:33:35.718Z,32.33
2018-11-05T15:36:04.077Z,31.90
2018-11-05T15:38:32.697Z,33.30
2018-11-05T15:41:01.919Z,29.60
2018-11-05T15:43:30.647Z,29.12
2018-11-05T15:45:59.137Z,30.27
2018-11-05T15:48:27.820Z,29.48
2018-11-05T15:50:56.922Z,28.90
2018-11-05T15:53:26.645Z,28.95
2018-11-05T15:55:55.548Z,29.60
2018-11-05T15:58:25.021Z,28.40
2018-11-05T16:00:54.325Z,29.70
2018-11-05T16:03:23.363Z,28.12
2018-11-05T16:05:52.404Z,28.67
2018-11-05T16:08:20.751Z,28.00
2018-11-05T16:10:49.702Z,29.67
2018-11-05T16:13:18.475Z,30.70
2018-11-05T16:15:47.129Z,27.75
2018-11-05T16:18:16.140Z,27.02
2018-11-05T16:20:44.853Z,28.70
2018-11-05T16:23:14.274Z,28.55
2018-11-05T16:25:42.919Z,29.98
2018-11-05T16:28:11.966Z,29.55
2018-11-05T16:30:40.729Z,28.83
2018-11-05T16:33:09.990Z,30.40
2018-11-05T16:35:39.110Z,31.52
2018-11-05T16:38:08.270Z,32.45
2018-11-05T16:40:36.965Z,32.40
2018-11-05T16:43:05.676Z,31.82
2018-11-05T16:45:34.759Z,32.05
2018-11-05T16:48:03.641Z,32.35
2018-11-05T16:50:32.333Z,32.15
2018-11-05T16:53:01.328Z,31.37
2018-11-05T16:55:30.040Z,113.77
2018-11-05T16:57:58.843Z,42.88
2018-11-05T17:00:27.808Z,35.95
2018-11-05T17:02:57.071Z,33.30
2018-11-05T17:05:26.293Z,32.90
2018-11-05T17:07:55.010Z,33.65
2018-11-05T17:10:24.045Z,32.33
2018-11-05T17:12:53.107Z,32.13
2018-11-05T17:15:22.178Z,34.23
2018-11-05T17:17:50.555Z,34.00
2018-11-05T17:20:20.103Z,34.70
2018-11-05T17:22:48.838Z,32.75
2018-11-05T17:25:17.891Z,34.15
2018-11-05T17:27:47.804Z,33.95
2018-11-05T17:30:18.726Z,33.88
2018-11-05T17:32:48.134Z,33.53
2018-11-05T17:35:17.143Z,40.23
2018-11-05T17:37:46.456Z,36.30
2018-11-05T17:40:17.091Z,35.30
2018-11-05T17:42:45.869Z,36.40
2018-11-05T17:45:16.526Z,36.65
2018-11-05T17:47:45.437Z,35.85
2018-11-05T17:50:16.455Z,36.13
2018-11-05T17:52:45.153Z,34.73
2018-11-05T17:55:14.318Z,36.03
2018-11-05T17:57:44.074Z,35.70
2018-11-05T18:00:19.481Z,35.23
2018-11-05T18:02:48.521Z,33.80
2018-11-05T18:05:17.217Z,36.23
2018-11-05T18:07:46.460Z,33.45
2018-11-05T18:10:15.739Z,33.40
2018-11-05T18:12:44.813Z,33.25
2018-11-05T18:15:14.181Z,35.28
2018-11-05T18:17:43.960Z,33.53
2018-11-05T18:20:13.798Z,87.82
2018-11-05T18:22:42.903Z,35.90
2018-11-05T18:25:13.085Z,33.00
2018-11-05T18:27:42.129Z,33.53
2018-11-05T18:30:11.296Z,31.45
2018-11-05T18:32:40.116Z,35.13
2018-11-05T18:35:10.411Z,32.28
2018-11-05T18:37:39.673Z,33.13
2018-11-05T18:40:10.226Z,36.10
2018-11-05T18:42:39.654Z,36.05
2018-11-05T18:45:08.546Z,34.03
2018-11-05T18:47:37.147Z,34.23
2018-11-05T18:50:07.726Z,40.48
2018-11-05T18:52:36.626Z,36.88
2018-11-05T18:55:06.778Z,34.35
2018-11-05T18:57:35.281Z,35.55
2018-11-05T19:00:04.173Z,35.78
2018-11-05T19:02:34.062Z,34.50
2018-11-05T19:05:03.233Z,35.05
2018-11-05T19:07:32.653Z,33.40
2018-11-05T19:10:01.772Z,34.35
2018-11-05T19:12:30.847Z,33.58
2018-11-05T19:14:59.304Z,33.80
2018-11-05T19:17:28.526Z,34.98
2018-11-05T19:19:57.452Z,34.45
2018-11-05T19:22:26.504Z,35.78
2018-11-05T19:24:55.779Z,35.00
2018-11-05T19:27:24.837Z,33.60
2018-11-05T19:29:55.272Z,36.08
2018-11-05T19:32:24.768Z,34.65
2018-11-05T19:34:53.818Z,37.55
2018-11-05T19:37:22.944Z,33.70
2018-11-05T19:39:52.010Z,33.98
2018-11-05T19:42:21.917Z,35.80
2018-11-05T19:44:50.386Z,34.88
2018-11-05T19:47:20.923Z,32.28
2018-11-05T19:49:52.934Z,32.25
2018-11-05T19:52:21.621Z,33.50
2018-11-05T19:54:50.261Z,33.33
2018-11-05T19:57:19.264Z,33.75
2018-11-05T19:59:48.129Z,32.35
2018-11-05T20:02:17.594Z,33.63
2018-11-05T20:04:46.786Z,35.48
2018-11-05T20:07:15.543Z,31.35
2018-11-05T20:09:44.259Z,33.90
2018-11-05T20:12:13.630Z,34.58
2018-11-05T20:14:42.370Z,33.23
2018-11-05T20:17:11.538Z,47.05
2018-11-05T20:19:40.265Z,61.92
2018-11-05T20:22:09.062Z,36.55
2018-11-05T20:24:38.331Z,32.58
2018-11-05T20:27:07.043Z,31.55
2018-11-05T20:29:36.079Z,33.67
2018-11-05T20:32:05.501Z,32.28
2018-11-05T20:34:34.794Z,32.30
2018-11-05T20:37:03.525Z,34.23
2018-11-05T20:39:31.951Z,29.60
2018-11-05T20:42:00.641Z,33.13
2018-11-05T20:44:29.059Z,33.48
2018-11-05T20:46:58.174Z,28.55
2018-11-05T20:49:26.926Z,28.95
2018-11-05T20:51:56.004Z,29.60
2018-11-05T20:54:25.050Z,29.70
2018-11-05T20:56:53.788Z,29.52
2018-11-05T20:59:22.643Z,27.98
2018-11-05T21:01:51.715Z,28.15
2018-11-05T21:04:20.815Z,27.98
2018-11-05T21:06:49.890Z,28.77
2018-11-05T21:09:18.960Z,27.25
2018-11-05T21:11:48.253Z,28.05
2018-11-05T21:14:17.279Z,28.00
2018-11-05T21:16:45.653Z,27.02
2018-11-05T21:19:14.820Z,26.25
2018-11-05T21:21:44.067Z,39.30
2018-11-05T21:24:13.090Z,35.75
2018-11-05T21:26:42.524Z,28.10
2018-11-05T21:29:11.821Z,27.73
2018-11-05T21:31:40.851Z,28.07
2018-11-05T21:34:09.934Z,32.98
2018-11-05T21:36:38.946Z,29.42
2018-11-05T21:39:09.577Z,27.70
2018-11-05T21:41:37.952Z,28.17
2018-11-05T21:44:07.622Z,27.05
2018-11-05T21:46:36.421Z,26.10
2018-11-05T21:49:05.333Z,26.05
2018-11-05T21:51:34.398Z,24.65
2018-11-05T21:54:03.100Z,25.92
2018-11-05T21:56:31.873Z,25.50
2018-11-05T21:59:00.637Z,24.95
2018-11-05T22:01:29.697Z,24.63
2018-11-05T22:03:58.765Z,23.40
2018-11-05T22:06:27.796Z,23.98
2018-11-05T22:08:56.882Z,23.12
2018-11-05T22:11:25.622Z,24.75
2018-11-05T22:13:54.265Z,23.22
2018-11-05T22:16:23.317Z,23.65
2018-11-05T22:18:52.337Z,23.07
2018-11-05T22:21:20.779Z,24.95
2018-11-05T22:23:49.459Z,21.20
2018-11-05T22:26:18.480Z,21.00
2018-11-05T22:28:47.489Z,19.73
2018-11-05T22:31:21.828Z,21.75
2018-11-05T22:33:50.902Z,20.08
2018-11-05T22:36:19.923Z,19.73
2018-11-05T22:38:48.913Z,20.00
2018-11-05T22:41:18.025Z,19.40
2018-11-05T22:43:46.878Z,20.75
2018-11-05T22:46:15.891Z,20.05
2018-11-05T22:48:44.970Z,19.75
2018-11-05T22:51:13.977Z,18.57
2018-11-05T22:53:43.066Z,18.75
2018-11-05T22:56:11.742Z,17.55
2018-11-05T22:58:40.426Z,18.35
2018-11-05T23:01:09.681Z,19.00
2018-11-05T23:03:38.076Z,19.50
2018-11-05T23:06:07.911Z,16.80
2018-11-05T23:08:36.969Z,18.20
2018-11-05T23:11:05.563Z,17.85
2018-11-05T23:13:34.218Z,17.80
2018-11-05T23:16:03.262Z,17.48
2018-11-05T23:18:32.269Z,17.23
2018-11-05T23:21:00.941Z,18.00
2018-11-05T23:23:29.624Z,18.25
2018-11-05T23:25:58.643Z,18.55
2018-11-05T23:28:27.678Z,18.60
2018-11-05T23:30:56.037Z,17.60
2018-11-05T23:33:24.721Z,16.85
2018-11-05T23:35:53.928Z,16.85
2018-11-05T23:38:22.605Z,17.67
2018-11-05T23:40:51.763Z,17.60
2018-11-05T23:43:20.843Z,17.92
2018-11-05T23:45:49.865Z,18.67
2018-11-05T23:48:18.862Z,18.85
2018-11-05T23:50:47.533Z,18.20
2018-11-05T23:53:16.559Z,17.20
2018-11-05T23:55:45.595Z,18.20
2018-11-05T23:58:14.646Z,17.35
